Wijchen, Netherlands
Current Conditions -  °F | °C
As of 10:55 AM on Sunday 25 Jan 2015 (Local Time) from EHVK Reporting Station
Haze Haze  
Wind Chill: 31°   Ceiling: Unl
Heat Index: 36°   Visibility: 4mi
Dew Point: 36°   Wind: 6mph
Humidity: 100%   Direction: 220°SW
Pressure: 30.39"   Gusts: NA
Location:  51.81°N, 5.73°E
Report Text: EHVK 250955Z AUTO 22005KT 6000 BR NCD 02/02 Q1029 WHT
Loading
Personal Weather Stations






























Interactive Weather Map New forecast layout! Learn more

10-Day Weather Forecast

Advertisements
Track Severe Weather on mobile